West Bethesda, Maryland
Current Conditions -  °F | °C
As of 1:55 PM on Sunday 23 Nov 2014 (Local Time) from KGAI Reporting Station
Clear Clear  
Wind Chill: 52°   Ceiling: Unl
Heat Index: 52°   Visibility: 10mi
Dew Point: 25°   Wind: 5mph
Humidity: 35%   Direction: 150°SSE
Pressure: 30.15"   Gusts: NA
Location:  39.0139°N, 77.1601°W
Report Text: KGAI 231855Z 15004KT 10SM CLR 11/M04 A3015 RMK AO1
Loading
Personal Weather Stations






























Interactive Weather Map New forecast layout! Learn more

10-Day Weather Forecast

Advertisements
Track Severe Weather on mobile